Time;durP1;ratioP1;P1;durP2;ratioP2;P2;SDS_P1;SDS_P2;PMS_P1;PMS_P2;Temp;Humidity;BMP_temperature;BMP_pressure;BME280_temperature;BME280_humidity;BME280_pressure;Samples;Min_cycle;Max_cycle;Signal;HPM_P1;HPM_P2
2023/12/11 00:02:13;;;;;;;15.02;9.88;;;;;;;4.07;57.68;93796.03;4881165;29;20052;-80
2023/12/11 00:04:39;;;;;;;19.30;12.20;;;;;;;4.10;58.02;93811.31;4883580;29;20025;-81
2023/12/11 00:07:05;;;;;;;17.98;10.35;;;;;;;4.05;58.06;93803.44;4898980;29;20625;-79
2023/12/11 00:09:31;;;;;;;15.35;8.48;;;;;;;3.94;58.28;93807.19;4881605;29;20421;-80
2023/12/11 00:11:57;;;;;;;11.75;9.05;;;;;;;4.11;58.62;93838.44;4885768;29;21474;-81
2023/12/11 00:14:22;;;;;;;13.27;7.57;;;;;;;3.89;59.19;93820.38;4877793;29;20075;-81
2023/12/11 00:16:48;;;;;;;12.70;8.77;;;;;;;3.88;59.21;93829.31;4881283;29;20115;-80
2023/12/11 00:19:13;;;;;;;12.98;7.53;;;;;;;4.01;59.17;93833.22;4887540;29;20058;-80
2023/12/11 00:21:38;;;;;;;12.15;7.93;;;;;;;3.68;59.96;93810.97;4887412;29;20032;-79
2023/12/11 00:24:06;;;;;;;9.75;7.32;;;;;;;3.58;60.67;93817.06;4883059;29;20087;-80
2023/12/11 00:26:31;;;;;;;10.82;7.50;;;;;;;3.68;60.80;93840.72;4886629;29;20120;-80
2023/12/11 00:28:57;;;;;;;11.93;7.40;;;;;;;3.72;60.88;93838.34;4885615;29;20029;-80
2023/12/11 00:31:22;;;;;;;9.30;7.45;;;;;;;3.73;60.63;93806.50;4883162;29;20040;-80
2023/12/11 00:33:48;;;;;;;12.55;8.40;;;;;;;3.62;60.88;93827.88;4885194;29;20344;-81
2023/12/11 00:36:13;;;;;;;11.45;7.50;;;;;;;3.88;60.94;93847.72;4882716;29;20063;-80
2023/12/11 00:38:39;;;;;;;11.27;7.40;;;;;;;3.82;60.72;93830.38;4885477;29;20032;-81
2023/12/11 00:41:04;;;;;;;12.27;8.13;;;;;;;3.88;60.71;93850.34;4879505;29;20051;-81
2023/12/11 00:43:30;;;;;;;12.93;8.27;;;;;;;3.88;60.37;93813.53;4880222;29;20036;-79
2023/12/11 00:45:56;;;;;;;10.27;7.70;;;;;;;4.07;60.02;93848.69;4884136;29;20036;-79
2023/12/11 00:48:21;;;;;;;12.77;9.75;;;;;;;3.99;59.90;93824.78;4887285;29;20127;-81
2023/12/11 00:50:47;;;;;;;14.52;9.05;;;;;;;4.09;59.88;93830.00;4899986;29;20055;-81
2023/12/11 00:53:12;;;;;;;11.77;8.77;;;;;;;4.37;59.34;93849.59;4884813;29;20064;-81
2023/12/11 00:55:38;;;;;;;13.15;9.07;;;;;;;4.16;59.18;93831.25;4884229;29;20433;-81
2023/12/11 00:58:03;;;;;;;11.77;8.43;;;;;;;3.99;58.99;93794.00;4883570;29;20051;-80
2023/12/11 01:00:29;;;;;;;10.80;7.43;;;;;;;4.35;59.19;93849.09;4881865;29;20533;-80
2023/12/11 01:02:55;;;;;;;11.25;8.38;;;;;;;4.42;58.63;93837.19;4883644;29;20037;-81
2023/12/11 01:05:20;;;;;;;12.85;9.57;;;;;;;4.47;58.92;93831.09;4899649;29;20416;-82
2023/12/11 01:07:46;;;;;;;13.35;10.30;;;;;;;4.30;58.95;93814.91;4883874;29;20024;-79
2023/12/11 01:10:11;;;;;;;13.95;9.35;;;;;;;4.48;58.92;93841.38;4883468;29;20138;-80
2023/12/11 01:12:37;;;;;;;14.05;9.18;;;;;;;4.53;59.07;93845.81;4883529;29;20040;-80
2023/12/11 01:15:03;;;;;;;11.73;8.60;;;;;;;4.32;59.29;93854.91;4883831;29;20036;-80
2023/12/11 01:17:28;;;;;;;14.88;9.25;;;;;;;4.36;59.39;93848.81;4897645;29;20052;-81
2023/12/11 01:19:54;;;;;;;15.38;10.18;;;;;;;4.39;59.21;93834.31;4884156;29;20033;-80
2023/12/11 01:22:19;;;;;;;13.05;8.43;;;;;;;4.26;59.07;93817.25;4885388;29;20077;-80
2023/12/11 01:24:45;;;;;;;10.27;6.65;;;;;;;4.09;59.05;93830.00;4899415;29;20032;-79
2023/12/11 01:27:10;;;;;;;9.93;7.45;;;;;;;3.87;59.49;93811.19;4884449;29;20167;-80
2023/12/11 01:29:36;;;;;;;5.05;3.75;;;;;;;3.82;59.30;93830.38;4885918;29;20047;-80
2023/12/11 01:32:01;;;;;;;4.28;3.20;;;;;;;3.61;59.96;93828.91;4884844;29;20032;-81
2023/12/11 01:34:26;;;;;;;4.70;3.60;;;;;;;3.53;59.98;93822.34;4884528;29;20476;-80
2023/12/11 01:36:52;;;;;;;5.70;3.90;;;;;;;3.32;61.21;93839.25;4884669;29;20040;-80
2023/12/11 01:39:17;;;;;;;4.78;3.90;;;;;;;3.33;61.26;93822.44;4884211;29;20036;-81
2023/12/11 01:41:43;;;;;;;4.18;3.50;;;;;;;3.18;61.79;93820.63;4886713;29;20047;-81
2023/12/11 01:44:08;;;;;;;4.20;3.13;;;;;;;3.22;61.87;93821.66;4882670;29;20041;-80
2023/12/11 01:46:34;;;;;;;3.85;3.47;;;;;;;3.23;62.21;93811.94;4888413;29;20424;-81
2023/12/11 01:48:59;;;;;;;5.40;4.03;;;;;;;3.61;61.21;93828.91;4882477;29;20894;-80
2023/12/11 01:51:25;;;;;;;9.82;5.22;;;;;;;3.62;60.90;93819.97;4885915;29;20345;-79
2023/12/11 01:53:51;;;;;;;8.57;5.45;;;;;;;3.61;61.38;93805.25;4881452;29;21457;-82
2023/12/11 01:56:18;;;;;;;9.23;5.57;;;;;;;3.60;60.99;93811.56;4883837;29;20036;-79
2023/12/11 01:58:45;;;;;;;6.63;4.75;;;;;;;3.68;60.98;93816.25;4881214;29;20048;-82
2023/12/11 02:01:12;;;;;;;6.93;4.85;;;;;;;3.87;60.13;93817.22;4889434;29;20120;-81
2023/12/11 02:03:37;;;;;;;6.53;4.43;;;;;;;3.83;59.99;93821.44;4889223;29;20049;-81
2023/12/11 02:06:03;;;;;;;7.65;5.03;;;;;;;3.80;60.17;93807.00;4886631;29;20452;-80
2023/12/11 02:08:29;;;;;;;7.05;5.65;;;;;;;3.85;59.44;93790.41;4883774;29;20048;-81
2023/12/11 02:10:55;;;;;;;8.73;5.65;;;;;;;3.87;59.37;93801.41;4880163;29;20036;-79
2023/12/11 02:13:20;;;;;;;8.00;5.30;;;;;;;3.92;59.15;93782.97;4884087;29;20111;-80
2023/12/11 02:15:47;;;;;;;6.43;4.65;;;;;;;3.81;59.53;93799.91;4880068;29;20083;-80
2023/12/11 02:18:16;;;;;;;5.68;4.55;;;;;;;3.70;60.03;93783.38;4885046;29;20501;-81
2023/12/11 02:20:43;;;;;;;6.10;4.40;;;;;;;3.68;59.89;93776.78;4882433;29;20067;-81
2023/12/11 02:23:14;;;;;;;5.53;4.22;;;;;;;3.52;59.86;93770.84;4883048;29;20471;-81
2023/12/11 02:25:43;;;;;;;5.50;4.15;;;;;;;3.45;60.61;93796.63;4882558;29;20081;-80
2023/12/11 02:28:09;;;;;;;5.15;4.18;;;;;;;3.66;60.09;93810.47;4869976;29;20032;-78
2023/12/11 02:30:37;;;;;;;4.78;3.10;;;;;;;3.50;59.97;93798.44;4886312;29;20047;-80
2023/12/11 02:33:04;;;;;;;4.25;3.28;;;;;;;3.36;60.53;93792.97;4883769;29;20534;-81
2023/12/11 02:35:29;;;;;;;3.58;2.83;;;;;;;3.02;61.21;93798.06;4883087;29;20035;-80
2023/12/11 02:37:55;;;;;;;5.45;3.42;;;;;;;3.11;60.98;93798.31;4879008;29;20032;-80
2023/12/11 02:40:20;;;;;;;3.58;3.22;;;;;;;3.04;61.54;93821.47;4894994;29;20031;-79
2023/12/11 02:42:48;;;;;;;4.22;3.45;;;;;;;3.17;60.41;93819.06;4883858;29;20092;-80
2023/12/11 02:45:15;;;;;;;3.35;2.80;;;;;;;2.91;61.76;93809.63;4883947;29;20040;-80
2023/12/11 02:47:41;;;;;;;4.63;3.47;;;;;;;2.80;61.82;93808.06;4880330;29;20036;-78
2023/12/11 02:50:07;;;;;;;3.55;3.08;;;;;;;2.56;63.24;93807.81;4884428;29;20040;-79
2023/12/11 02:52:32;;;;;;;4.63;3.17;;;;;;;2.49;63.96;93805.47;4884379;29;20393;-80
2023/12/11 02:54:58;;;;;;;4.43;3.78;;;;;;;2.71;64.13;93814.91;4881594;29;20117;-82
2023/12/11 02:57:23;;;;;;;5.00;3.58;;;;;;;2.62;63.90;93800.72;4879635;29;20051;-81
2023/12/11 02:59:49;;;;;;;3.70;2.83;;;;;;;2.64;63.89;93802.06;4883210;29;20469;-79
2023/12/11 03:02:15;;;;;;;4.90;3.80;;;;;;;2.37;64.12;93751.66;4879572;29;20053;-80
2023/12/11 03:04:42;;;;;;;4.53;3.53;;;;;;;2.86;63.43;93801.75;4882147;29;20491;-80
2023/12/11 03:07:08;;;;;;;4.05;3.60;;;;;;;2.83;62.88;93781.28;4883599;29;20056;-80
2023/12/11 03:09:33;;;;;;;4.65;3.17;;;;;;;2.82;63.23;93805.97;4885590;29;20040;-80
2023/12/11 03:11:59;;;;;;;6.18;4.80;;;;;;;2.87;63.08;93801.50;4881651;29;20442;-81
2023/12/11 03:14:24;;;;;;;5.82;4.57;;;;;;;2.86;63.01;93802.56;4881799;29;20172;-80
2023/12/11 03:16:50;;;;;;;6.03;4.32;;;;;;;2.80;63.60;93782.59;4883450;29;20036;-81
2023/12/11 03:19:16;;;;;;;5.35;3.90;;;;;;;2.80;63.49;93792.31;4882217;29;20111;-80
2023/12/11 03:21:42;;;;;;;5.90;4.13;;;;;;;2.92;63.10;93805.97;4884073;29;20036;-81
2023/12/11 03:24:08;;;;;;;4.38;3.28;;;;;;;2.94;62.38;93788.06;4882498;29;20111;-80
2023/12/11 03:26:33;;;;;;;2.17;1.77;;;;;;;3.06;61.75;93801.72;4884034;29;20465;-79
2023/12/11 03:28:59;;;;;;;2.63;1.92;;;;;;;3.08;61.31;93801.47;4896089;29;20504;-80
2023/12/11 03:31:24;;;;;;;3.47;2.65;;;;;;;3.37;60.47;93797.97;4882789;29;20024;-81
2023/12/11 03:33:50;;;;;;;3.03;2.40;;;;;;;3.39;59.73;93795.84;4881465;29;20033;-80
2023/12/11 03:36:15;;;;;;;2.50;2.08;;;;;;;3.44;59.64;93802.13;4883975;29;20527;-80
2023/12/11 03:38:40;;;;;;;2.88;1.80;;;;;;;3.17;59.07;93786.72;4881848;29;20120;-80
2023/12/11 03:41:06;;;;;;;2.70;1.77;;;;;;;3.30;59.36;93797.47;4898240;29;20115;-80
2023/12/11 03:43:31;;;;;;;2.35;1.83;;;;;;;2.99;60.29;93785.44;4881106;29;20079;-82
2023/12/11 03:45:57;;;;;;;2.53;1.90;;;;;;;2.92;60.48;93775.22;4883612;29;20037;-78
2023/12/11 03:48:23;;;;;;;3.08;2.15;;;;;;;3.17;60.34;93781.47;4881977;29;20488;-80
2023/12/11 03:50:48;;;;;;;2.25;1.70;;;;;;;3.44;59.49;93802.94;4883990;29;20032;-80
2023/12/11 03:53:13;;;;;;;2.38;1.92;;;;;;;3.44;59.20;93794.25;4884079;29;20056;-80
2023/12/11 03:55:39;;;;;;;2.40;1.75;;;;;;;3.37;59.64;93811.13;4881469;29;20059;-80
2023/12/11 03:58:05;;;;;;;2.58;2.03;;;;;;;3.38;59.78;93804.78;4896943;29;20048;-80
2023/12/11 04:00:30;;;;;;;2.47;1.45;;;;;;;3.26;59.98;93806.94;4880679;29;20547;-81
2023/12/11 04:02:55;;;;;;;2.13;1.92;;;;;;;3.29;59.35;93782.72;4883310;29;20500;-80
2023/12/11 04:05:21;;;;;;;2.08;1.67;;;;;;;3.28;59.98;93799.56;4893769;29;20046;-81
2023/12/11 04:07:46;;;;;;;2.00;1.75;;;;;;;3.50;59.40;93807.13;4883114;29;20028;-81
2023/12/11 04:10:12;;;;;;;1.40;1.30;;;;;;;3.58;58.42;93787.34;4882885;29;20033;-80
2023/12/11 04:12:43;;;;;;;1.80;1.38;;;;;;;3.60;58.62;93801.03;4884994;29;20048;-81
2023/12/11 04:15:08;;;;;;;1.85;1.70;;;;;;;3.53;58.46;93782.13;4883040;29;20047;-81
2023/12/11 04:17:34;;;;;;;1.95;1.50;;;;;;;3.34;58.97;93787.19;4897640;29;20044;-80
2023/12/11 04:19:59;;;;;;;1.60;1.50;;;;;;;3.65;59.06;93809.69;4882196;29;20027;-80
2023/12/11 04:22:25;;;;;;;1.58;1.48;;;;;;;3.59;58.01;93788.94;4884076;29;20489;-81
2023/12/11 04:24:50;;;;;;;2.10;1.60;;;;;;;3.74;58.25;93802.03;4883371;29;20045;-81
2023/12/11 04:27:16;;;;;;;3.80;1.90;;;;;;;3.75;58.22;93795.72;4880294;29;20519;-80
2023/12/11 04:29:41;;;;;;;4.78;3.30;;;;;;;3.72;58.58;93799.66;4880730;29;20047;-81
2023/12/11 04:32:07;;;;;;;4.03;2.00;;;;;;;3.88;58.62;93803.00;4885676;29;20131;-81
2023/12/11 04:34:32;;;;;;;4.35;2.70;;;;;;;3.71;58.24;93789.41;4885925;29;20067;-80
2023/12/11 04:36:59;;;;;;;2.70;2.25;;;;;;;3.70;58.58;93812.31;4889315;29;20577;-79
2023/12/11 04:39:24;;;;;;;2.22;2.03;;;;;;;3.56;58.78;93816.56;4888614;29;20119;-80
2023/12/11 04:41:50;;;;;;;4.47;2.30;;;;;;;3.51;59.28;93792.13;4883170;29;20554;-79
2023/12/11 04:44:15;;;;;;;1.88;1.77;;;;;;;3.73;58.53;93814.38;4886459;29;20044;-81
2023/12/11 04:46:41;;;;;;;2.60;2.35;;;;;;;3.79;58.66;93812.53;4888329;29;20970;-80
2023/12/11 04:49:06;;;;;;;3.30;2.45;;;;;;;3.63;58.62;93784.69;4885631;29;20040;-81
2023/12/11 04:51:32;;;;;;;4.22;3.30;;;;;;;3.85;58.54;93811.44;4886784;29;20037;-80
2023/12/11 04:53:58;;;;;;;3.67;2.50;;;;;;;3.89;58.02;93820.38;4885994;29;20045;-79
2023/12/11 04:56:24;;;;;;;4.22;2.38;;;;;;;3.60;57.91;93764.22;4884586;29;20038;-80
2023/12/11 04:58:49;;;;;;;3.45;2.75;;;;;;;3.78;58.10;93808.31;4885097;29;20489;-80
2023/12/11 05:01:15;;;;;;;4.00;3.20;;;;;;;3.75;58.33;93790.44;4887111;29;20078;-80
2023/12/11 05:03:40;;;;;;;4.32;3.78;;;;;;;3.71;58.54;93808.63;4882229;29;20068;-81
2023/12/11 05:06:06;;;;;;;5.32;4.07;;;;;;;3.62;58.85;93804.97;4883293;29;20041;-80
2023/12/11 05:08:32;;;;;;;5.53;4.18;;;;;;;3.54;59.52;93802.91;4897140;29;20159;-80
2023/12/11 05:10:57;;;;;;;3.72;2.75;;;;;;;3.27;60.04;93820.88;4887974;29;20045;-81
2023/12/11 05:13:23;;;;;;;4.25;3.00;;;;;;;3.10;61.03;93828.25;4880844;29;20033;-80
2023/12/11 05:15:48;;;;;;;11.15;6.18;;;;;;;3.12;60.99;93810.41;4884260;29;20037;-81
2023/12/11 05:18:14;;;;;;;16.02;6.97;;;;;;;2.84;62.14;93794.13;4884266;29;20040;-80
2023/12/11 05:20:39;;;;;;;10.18;5.95;;;;;;;2.63;62.18;93734.03;4887670;29;20572;-80
2023/12/11 05:23:04;;;;;;;8.07;5.68;;;;;;;3.53;60.21;93816.31;4883400;29;20059;-81
2023/12/11 05:25:30;;;;;;;8.07;6.35;;;;;;;3.74;59.42;93817.81;4886297;29;20122;-80
2023/12/11 05:27:55;;;;;;;7.00;5.60;;;;;;;3.78;58.95;93827.50;4879819;29;20200;-81
2023/12/11 05:30:21;;;;;;;7.22;6.05;;;;;;;4.03;58.26;93842.41;4878994;29;20041;-81
2023/12/11 05:32:46;;;;;;;8.20;5.75;;;;;;;4.06;57.97;93827.91;4880701;29;20123;-80
2023/12/11 05:35:12;;;;;;;9.73;5.28;;;;;;;4.03;57.71;93818.72;4886959;29;20041;-81
2023/12/11 05:37:37;;;;;;;7.45;5.15;;;;;;;4.00;57.92;93831.63;4884235;29;20131;-81
2023/12/11 05:40:03;;;;;;;8.90;6.22;;;;;;;4.24;57.00;93845.72;4886298;29;20032;-81
2023/12/11 05:42:29;;;;;;;11.88;9.70;;;;;;;3.86;57.56;93820.91;4881095;29;20037;-81
2023/12/11 05:44:54;;;;;;;19.42;14.23;;;;;;;3.73;58.23;93837.28;4884235;29;20032;-81
2023/12/11 05:47:20;;;;;;;8.80;5.50;;;;;;;3.84;58.00;93855.38;4881205;29;20040;-80
2023/12/11 05:49:45;;;;;;;7.60;5.15;;;;;;;3.82;58.52;93848.78;4886019;29;20410;-80
2023/12/11 05:52:11;;;;;;;13.43;9.90;;;;;;;3.82;58.25;93846.97;4897172;29;20053;-80
2023/12/11 05:54:36;;;;;;;22.27;11.63;;;;;;;3.88;58.26;93853.00;4885568;29;20437;-81
2023/12/11 05:57:02;;;;;;;7.97;5.78;;;;;;;3.78;58.44;93834.63;4882655;29;20067;-81
2023/12/11 05:59:27;;;;;;;5.75;4.97;;;;;;;3.92;58.49;93861.91;4884675;29;20087;-80
2023/12/11 06:01:53;;;;;;;9.38;7.53;;;;;;;4.00;58.48;93861.38;4897338;29;20052;-80
2023/12/11 06:04:18;;;;;;;9.35;7.80;;;;;;;3.97;58.43;93840.06;4897774;29;20033;-80
2023/12/11 06:06:44;;;;;;;12.07;7.70;;;;;;;3.97;58.46;93845.31;4880864;29;20028;-80
2023/12/11 06:09:09;;;;;;;8.70;6.18;;;;;;;3.84;59.16;93854.59;4886258;29;20504;-80
2023/12/11 06:11:35;;;;;;;10.50;8.25;;;;;;;3.95;58.71;93827.19;4881233;29;20037;-80
2023/12/11 06:14:00;;;;;;;8.23;7.30;;;;;;;4.11;58.49;93844.44;4882703;29;20039;-81
2023/12/11 06:16:25;;;;;;;6.97;5.57;;;;;;;4.08;58.72;93839.75;4883415;29;20029;-80
2023/12/11 06:18:51;;;;;;;8.55;6.25;;;;;;;4.22;58.33;93839.91;4880689;29;20047;-81
2023/12/11 06:21:18;;;;;;;8.35;5.88;;;;;;;4.23;58.45;93860.72;4885804;29;21077;-78
2023/12/11 06:23:43;;;;;;;10.30;7.32;;;;;;;4.18;58.35;93842.31;4880550;29;20067;-80
2023/12/11 06:26:09;;;;;;;10.55;7.22;;;;;;;4.14;58.02;93822.06;4885731;29;20607;-81
2023/12/11 06:28:34;;;;;;;10.18;7.72;;;;;;;4.40;58.28;93859.59;4882451;29;20021;-81
2023/12/11 06:31:00;;;;;;;8.45;4.90;;;;;;;4.40;58.12;93864.88;4884204;29;20029;-80
2023/12/11 06:33:25;;;;;;;7.40;5.18;;;;;;;4.10;58.70;93850.00;4883083;29;20123;-80
2023/12/11 06:35:51;;;;;;;9.82;5.32;;;;;;;3.76;59.22;93831.50;4882881;29;20056;-81
2023/12/11 06:38:17;;;;;;;9.48;5.65;;;;;;;4.08;58.79;93850.25;4883068;29;20065;-80
2023/12/11 06:40:42;;;;;;;7.80;5.05;;;;;;;3.94;58.97;93827.44;4881054;29;20112;-81
2023/12/11 06:43:08;;;;;;;11.68;5.78;;;;;;;4.09;58.79;93846.59;4886259;29;20509;-81
2023/12/11 06:45:33;;;;;;;7.00;5.78;;;;;;;4.20;58.75;93857.84;4881883;29;20511;-80
2023/12/11 06:47:59;;;;;;;8.38;6.00;;;;;;;4.21;58.32;93844.41;4882924;29;20066;-80
2023/12/11 06:50:24;;;;;;;10.60;6.88;;;;;;;4.15;58.09;93834.97;4897445;29;20047;-82
2023/12/11 06:52:49;;;;;;;12.23;7.50;;;;;;;4.17;58.89;93869.69;4881131;29;20141;-80
2023/12/11 06:55:15;;;;;;;8.05;6.40;;;;;;;3.91;58.22;93844.56;4886770;29;20154;-80
2023/12/11 06:57:41;;;;;;;7.13;5.30;;;;;;;4.30;58.03;93859.66;4894015;29;20104;-81
2023/12/11 07:00:09;;;;;;;7.20;5.65;;;;;;;4.39;57.32;93856.19;4894451;29;20044;-80
2023/12/11 07:02:35;;;;;;;8.80;5.78;;;;;;;4.35;57.39;93849.91;4883861;29;20173;-81
2023/12/11 07:05:00;;;;;;;7.57;5.43;;;;;;;3.51;56.53;93727.19;4879456;29;20028;-82
2023/12/11 07:07:25;;;;;;;9.05;6.47;;;;;;;4.62;56.85;93896.84;4882451;29;20036;-81
2023/12/11 07:09:51;;;;;;;8.40;5.35;;;;;;;4.57;56.95;93891.63;4894980;29;20044;-80
2023/12/11 07:12:17;;;;;;;10.32;7.07;;;;;;;4.72;56.53;93896.78;4894388;29;20100;-83
2023/12/11 07:14:44;;;;;;;8.95;5.85;;;;;;;4.67;56.72;93883.66;4891177;29;20323;-83
2023/12/11 07:17:10;;;;;;;9.95;7.07;;;;;;;4.50;56.50;93875.34;4896503;29;20060;-82
2023/12/11 07:19:35;;;;;;;8.85;6.13;;;;;;;4.52;56.50;93902.97;4895898;29;20064;-81
2023/12/11 07:22:01;;;;;;;7.53;4.85;;;;;;;4.32;56.28;93897.81;4894734;29;20047;-82
2023/12/11 07:24:26;;;;;;;7.95;5.25;;;;;;;4.07;57.34;93901.31;4894164;29;20180;-82
2023/12/11 07:26:52;;;;;;;9.43;5.93;;;;;;;3.82;57.83;93890.91;4899764;29;20032;-81
2023/12/11 07:29:17;;;;;;;9.25;6.07;;;;;;;3.88;58.45;93897.72;4873305;29;20215;-79
2023/12/11 07:31:43;;;;;;;9.43;6.38;;;;;;;3.73;58.37;93874.09;4874605;29;20105;-80
2023/12/11 07:34:08;;;;;;;13.25;6.30;;;;;;;3.81;58.97;93905.13;4872976;29;20485;-80
2023/12/11 07:36:34;;;;;;;10.25;6.28;;;;;;;3.29;58.80;93851.09;4876612;29;20525;-80
2023/12/11 07:38:59;;;;;;;8.50;4.50;;;;;;;3.61;59.28;93915.69;4873667;29;20036;-80
2023/12/11 07:41:25;;;;;;;11.75;5.40;;;;;;;3.55;58.80;93883.38;4888294;29;20541;-79
2023/12/11 07:43:50;;;;;;;8.45;5.03;;;;;;;3.50;59.43;93895.72;4871711;29;20048;-78
2023/12/11 07:46:17;;;;;;;6.75;4.43;;;;;;;3.48;59.52;93898.63;4876840;29;20037;-80
2023/12/11 07:48:43;;;;;;;9.18;4.57;;;;;;;3.45;59.08;93896.53;4875274;29;20075;-80
2023/12/11 07:51:29;;;;;;;7.38;4.40;;;;;;;3.66;59.01;93916.47;4875876;29;20476;-80
2023/12/11 07:53:55;;;;;;;6.55;3.92;;;;;;;3.51;58.55;93907.84;4868592;29;20515;-80
2023/12/11 07:56:22;;;;;;;4.25;3.50;;;;;;;3.41;59.54;93908.63;4875521;29;20926;-80
2023/12/11 07:58:49;;;;;;;5.80;4.00;;;;;;;3.32;60.12;93902.34;4872445;29;20040;-81
2023/12/11 08:01:15;;;;;;;8.13;4.15;;;;;;;3.48;59.78;93914.41;4876687;29;20407;-81
2023/12/11 08:03:40;;;;;;;6.75;3.58;;;;;;;3.59;58.44;93907.28;4875962;29;20036;-81
2023/12/11 08:06:10;;;;;;;7.10;4.20;;;;;;;3.22;58.98;93892.63;4871377;29;20048;-80
2023/12/11 08:08:40;;;;;;;4.57;3.80;;;;;;;3.15;59.13;93893.94;4877917;29;20489;-79
2023/12/11 08:11:29;;;;;;;7.40;4.32;;;;;;;3.18;60.07;93909.19;4877053;29;20037;-79
2023/12/11 08:13:54;;;;;;;6.00;3.97;;;;;;;3.11;60.31;93896.31;4877328;29;20043;-80
2023/12/11 08:16:21;;;;;;;8.65;4.50;;;;;;;3.19;61.29;93906.28;4877626;29;20025;-81
2023/12/11 08:18:48;;;;;;;6.28;5.00;;;;;;;3.24;59.93;93898.41;4878901;29;20050;-80
2023/12/11 08:21:16;;;;;;;5.97;4.90;;;;;;;3.37;59.98;93904.97;4880392;29;20529;-79
2023/12/11 08:23:44;;;;;;;9.32;5.03;;;;;;;3.52;59.48;93891.78;4877212;29;20154;-78
2023/12/11 08:26:11;;;;;;;11.13;7.18;;;;;;;3.43;59.49;93905.75;4865221;29;20511;-80
2023/12/11 08:28:37;;;;;;;11.20;6.55;;;;;;;3.27;59.85;93913.66;4876638;29;20048;-81
2023/12/11 08:31:03;;;;;;;5.22;3.42;;;;;;;3.25;59.68;93905.25;4877914;29;20051;-81
2023/12/11 08:33:30;;;;;;;8.43;4.78;;;;;;;3.30;59.17;93893.94;4876953;29;20072;-79
2023/12/11 08:35:56;;;;;;;8.18;4.95;;;;;;;3.35;58.89;93886.81;4876984;29;20439;-81
2023/12/11 08:38:23;;;;;;;10.02;5.25;;;;;;;3.52;58.93;93906.78;4878493;29;20037;-79
2023/12/11 08:40:49;;;;;;;7.28;4.35;;;;;;;3.47;58.52;93904.16;4882820;29;20030;-81
2023/12/11 08:43:16;;;;;;;9.15;6.60;;;;;;;3.32;59.18;93897.88;4878756;29;20016;-80
2023/12/11 08:45:42;;;;;;;19.75;10.52;;;;;;;3.33;59.11;93881.03;4873351;29;20028;-81
2023/12/11 08:48:07;;;;;;;7.05;4.80;;;;;;;3.48;59.01;93892.59;4879635;29;20047;-81
2023/12/11 08:50:33;;;;;;;5.03;3.58;;;;;;;3.40;59.00;93886.81;4878821;29;20365;-81
2023/12/11 08:53:03;;;;;;;7.80;3.95;;;;;;;3.37;59.18;93871.59;4878481;29;20517;-80
2023/12/11 08:55:29;;;;;;;7.10;4.55;;;;;;;3.58;58.93;93889.91;4872821;29;20036;-81
2023/12/11 08:57:55;;;;;;;7.55;3.95;;;;;;;3.55;58.43;93870.22;4877350;29;20060;-81
2023/12/11 09:00:21;;;;;;;11.15;4.93;;;;;;;3.84;58.11;93894.84;4870545;29;20797;-80
2023/12/11 09:02:47;;;;;;;6.93;4.65;;;;;;;3.94;57.99;93862.44;4878092;29;20459;-80
2023/12/11 09:05:13;;;;;;;11.80;5.60;;;;;;;3.89;56.62;93830.88;4876908;29;20041;-81
2023/12/11 09:07:38;;;;;;;10.88;5.57;;;;;;;4.16;57.22;93862.09;4877235;29;20459;-81
2023/12/11 09:10:04;;;;;;;9.70;6.13;;;;;;;4.31;56.94;93880.44;4872862;29;20108;-81
2023/12/11 09:12:30;;;;;;;8.75;5.80;;;;;;;4.24;56.80;93859.66;4869709;29;20044;-81
2023/12/11 09:14:56;;;;;;;9.35;5.38;;;;;;;4.41;56.76;93863.78;4877868;29;20048;-80
2023/12/11 09:17:21;;;;;;;8.00;3.90;;;;;;;4.12;56.57;93837.34;4877744;29;20155;-78
2023/12/11 09:19:47;;;;;;;11.18;5.75;;;;;;;4.30;56.71;93834.13;4891971;29;20436;-80
2023/12/11 09:22:14;;;;;;;10.43;7.05;;;;;;;4.73;56.64;93843.03;4877837;29;20024;-80
2023/12/11 09:24:42;;;;;;;15.20;9.90;;;;;;;4.79;54.64;93836.69;4877425;29;20427;-78
2023/12/11 09:27:07;;;;;;;9.30;4.85;;;;;;;4.90;54.69;93835.50;4879602;29;20596;-79
2023/12/11 09:29:33;;;;;;;11.60;7.20;;;;;;;4.82;55.11;93854.56;4877814;29;20100;-79
2023/12/11 09:31:59;;;;;;;10.07;6.68;;;;;;;4.42;55.98;93850.38;4876951;29;20048;-81
2023/12/11 09:34:25;;;;;;;9.52;4.97;;;;;;;4.64;55.63;93844.69;4873793;29;20032;-81
2023/12/11 09:36:50;;;;;;;9.57;5.75;;;;;;;4.84;55.42;93838.47;4879243;29;20100;-80
2023/12/11 09:39:16;;;;;;;7.28;5.70;;;;;;;5.06;54.85;93829.03;4873989;29;20048;-79
2023/12/11 09:41:44;;;;;;;10.73;7.25;;;;;;;4.40;55.86;93834.06;4877606;29;20291;-81
2023/12/11 09:44:11;;;;;;;9.98;5.90;;;;;;;4.27;56.48;93835.41;4874996;29;20154;-81
2023/12/11 09:47:01;;;;;;;10.50;6.05;;;;;;;4.49;57.27;93839.53;4875837;29;20091;-81
2023/12/11 09:49:27;;;;;;;12.52;6.00;;;;;;;4.50;56.26;93828.69;4879775;29;20040;-79
2023/12/11 09:51:53;;;;;;;10.77;6.72;;;;;;;5.04;56.18;93814.59;4875089;29;20396;-81
2023/12/11 09:54:18;;;;;;;7.75;5.75;;;;;;;5.24;55.71;93801.19;4876176;29;20344;-78
2023/12/11 09:56:44;;;;;;;8.35;4.53;;;;;;;4.56;55.31;93809.19;4876770;29;20092;-78
2023/12/11 09:59:11;;;;;;;9.95;4.60;;;;;;;3.89;57.35;93820.38;4875739;29;20040;-81
2023/12/11 10:01:37;;;;;;;8.73;4.93;;;;;;;4.39;56.92;93808.78;4878112;29;20139;-80
2023/12/11 10:04:03;;;;;;;8.32;4.68;;;;;;;4.83;56.29;93787.63;4874943;29;20140;-81
2023/12/11 10:06:29;;;;;;;9.73;5.65;;;;;;;4.22;56.47;93801.22;4874499;29;20183;-82
2023/12/11 10:08:55;;;;;;;6.20;4.93;;;;;;;4.20;56.84;93766.50;4877276;29;20392;-78
2023/12/11 10:11:26;;;;;;;6.82;5.82;;;;;;;4.70;56.18;93794.31;4875205;29;20052;-82
2023/12/11 10:13:52;;;;;;;11.13;5.40;;;;;;;5.12;54.76;93809.50;4875754;29;20052;-81
2023/12/11 10:16:32;;;;;;;9.02;6.18;;;;;;;4.25;56.06;93803.31;4877555;29;20119;-80
2023/12/11 10:18:59;;;;;;;8.35;5.22;;;;;;;4.20;56.81;93808.63;4877093;29;20810;-81
2023/12/11 10:21:25;;;;;;;10.10;5.90;;;;;;;4.49;56.17;93811.34;4877620;29;20152;-81
2023/12/11 10:24:10;;;;;;;10.25;6.20;;;;;;;4.33;56.66;93782.75;4873368;29;20036;-81
2023/12/11 10:26:38;;;;;;;9.15;6.03;;;;;;;4.82;56.12;93791.31;4870468;29;20480;-81
2023/12/11 10:29:27;;;;;;;6.82;5.60;;;;;;;4.13;56.79;93787.06;4880838;29;20020;-81
2023/12/11 10:32:00;;;;;;;9.30;6.70;;;;;;;3.99;58.13;93772.94;4859313;29;20040;-78
2023/12/11 10:34:50;;;;;;;12.75;6.15;;;;;;;4.29;57.55;93795.66;4878696;29;20107;-81
2023/12/11 10:37:19;;;;;;;9.48;5.88;;;;;;;4.36;57.13;93787.47;4881475;29;20048;-80
2023/12/11 10:43:06;;;;;;;9.85;5.78;;;;;;;4.45;56.90;93794.53;4880853;29;20425;-80
2023/12/11 10:45:33;;;;;;;12.35;6.53;;;;;;;4.39;56.81;93795.63;4882763;29;20032;-80
2023/12/11 10:47:59;;;;;;;11.07;5.65;;;;;;;4.26;57.03;93773.28;4881674;29;20454;-82
2023/12/11 10:50:25;;;;;;;11.27;6.20;;;;;;;4.94;56.27;93786.44;4877795;29;20217;-81
2023/12/11 10:52:51;;;;;;;9.02;5.72;;;;;;;4.67;55.56;93736.13;4882614;29;20032;-81
2023/12/11 10:55:16;;;;;;;8.70;5.75;;;;;;;4.67;56.09;93773.78;4880347;29;20480;-82
2023/12/11 10:57:43;;;;;;;11.73;6.28;;;;;;;4.59;56.22;93786.78;4882042;29;20128;-81
2023/12/11 11:00:13;;;;;;;11.63;5.95;;;;;;;5.07;55.49;93780.53;4879745;29;20036;-80
2023/12/11 11:02:43;;;;;;;13.02;6.07;;;;;;;5.29;54.55;93758.16;4881283;29;20072;-81
2023/12/11 11:05:09;;;;;;;9.02;6.13;;;;;;;5.59;54.55;93768.34;4879395;29;20036;-78
2023/12/11 11:07:43;;;;;;;10.63;5.80;;;;;;;5.52;53.86;93770.56;4881550;29;20062;-81
2023/12/11 11:10:34;;;;;;;14.82;6.57;;;;;;;5.20;54.49;93759.84;4878000;29;20078;-81
2023/12/11 11:13:22;;;;;;;11.80;8.07;;;;;;;4.91;54.90;93712.44;4875104;29;20101;-81
2023/12/11 11:15:54;;;;;;;9.43;5.72;;;;;;;5.31;54.50;93748.91;4882841;29;20032;-78
2023/12/11 11:18:20;;;;;;;14.65;6.25;;;;;;;4.89;55.71;93733.03;4893476;29;20520;-81
2023/12/11 11:21:11;;;;;;;12.77;6.45;;;;;;;5.42;55.39;93739.03;4894972;29;20135;-79
2023/12/11 11:23:45;;;;;;;17.42;8.80;;;;;;;5.73;53.85;93742.06;4881023;29;20040;-82
2023/12/11 11:26:35;;;;;;;9.85;5.40;;;;;;;5.98;53.35;93745.13;4880808;29;20040;-81
2023/12/11 11:29:05;;;;;;;10.13;6.05;;;;;;;5.99;52.66;93753.84;4879268;29;20033;-82
2023/12/11 11:31:49;;;;;;;13.88;7.15;;;;;;;6.23;52.72;93756.44;4883124;29;20031;-81
2023/12/11 11:34:14;;;;;;;35.67;21.85;;;;;;;5.83;52.49;93731.34;4879854;29;20052;-80
2023/12/11 11:36:46;;;;;;;24.55;11.05;;;;;;;5.91;53.37;93734.16;4882817;29;20079;-83
2023/12/11 11:39:12;;;;;;;29.77;16.05;;;;;;;5.52;53.87;93746.81;4867983;29;20742;-81
2023/12/11 11:41:38;;;;;;;43.90;23.42;;;;;;;5.82;54.13;93704.19;4886382;29;20045;-80